sensor_id;sensor_type;location;lat;lon;timestamp;pressure;altitude;pressure_sealevel;temperature;humidity
50652;BME280;66928;52.086;5.240;2023-03-21T06:31:47;101257.0;;;11.4;87.05
50652;BME280;66928;52.086;5.240;2023-03-21T06:34:59;101257.0;;;11.42;87.17
50652;BME280;66928;52.086;5.240;2023-03-21T06:36:35;101264.0;;;11.4;87.06
50652;BME280;66928;52.086;5.240;2023-03-21T06:38:11;101256.0;;;11.34;87.22
50652;BME280;66928;52.086;5.240;2023-03-21T06:39:48;101261.0;;;11.38;87.18
50652;BME280;66928;52.086;5.240;2023-03-21T06:43:00;101259.0;;;11.31;87.61
50652;BME280;66928;52.086;5.240;2023-03-21T06:44:36;101261.0;;;11.32;87.78
50652;BME280;66928;52.086;5.240;2023-03-21T06:46:12;101262.0;;;11.3;87.5
50652;BME280;66928;52.086;5.240;2023-03-21T06:49:24;101263.0;;;11.32;87.56
50652;BME280;66928;52.086;5.240;2023-03-21T06:51:01;101263.0;;;11.37;87.64
50652;BME280;66928;52.086;5.240;2023-03-21T06:52:37;101263.0;;;11.4;87.33
50652;BME280;66928;52.086;5.240;2023-03-21T06:55:49;101262.0;;;11.39;87.54
50652;BME280;66928;52.086;5.240;2023-03-21T06:57:26;101262.0;;;11.4;87.5
50652;BME280;66928;52.086;5.240;2023-03-21T06:59:03;101260.0;;;11.43;87.65
50652;BME280;66928;52.086;5.240;2023-03-21T07:02:15;101264.0;;;11.43;87.6
50652;BME280;66928;52.086;5.240;2023-03-21T07:03:51;101262.0;;;11.51;87.28
50652;BME280;66928;52.086;5.240;2023-03-21T07:05:27;101263.0;;;11.46;87.68
50652;BME280;66928;52.086;5.240;2023-03-21T07:07:03;101264.0;;;11.47;87.18
50652;BME280;66928;52.086;5.240;2023-03-21T07:11:53;101269.0;;;11.5;87.2
50652;BME280;66928;52.086;5.240;2023-03-21T07:13:29;101272.0;;;11.59;87.03
50652;BME280;66928;52.086;5.240;2023-03-21T07:16:44;101268.0;;;11.61;86.46
50652;BME280;66928;52.086;5.240;2023-03-21T07:18:21;101263.0;;;11.6;86.11
50652;BME280;66928;52.086;5.240;2023-03-21T07:19:57;101277.0;;;11.6;86.2
50652;BME280;66928;52.086;5.240;2023-03-21T07:23:10;101271.0;;;11.58;86.21
50652;BME280;66928;52.086;5.240;2023-03-21T07:24:47;101271.0;;;11.56;86.68
50652;BME280;66928;52.086;5.240;2023-03-21T07:26:23;101270.0;;;11.62;86.69
50652;BME280;66928;52.086;5.240;2023-03-21T07:27:59;101273.0;;;11.68;86.32
50652;BME280;66928;52.086;5.240;2023-03-21T07:31:14;101267.0;;;11.66;86.54
50652;BME280;66928;52.086;5.240;2023-03-21T07:32:50;101266.0;;;11.76;86.58
50652;BME280;66928;52.086;5.240;2023-03-21T07:34:27;101263.0;;;11.74;86.3
50652;BME280;66928;52.086;5.240;2023-03-21T07:37:47;101263.0;;;11.77;86.19
50652;BME280;66928;52.086;5.240;2023-03-21T07:39:23;101258.0;;;11.74;86.86
50652;BME280;66928;52.086;5.240;2023-03-21T07:40:59;101255.0;;;11.68;86.9
50652;BME280;66928;52.086;5.240;2023-03-21T07:42:35;101250.0;;;11.79;86.76
50652;BME280;66928;52.086;5.240;2023-03-21T07:45:47;101243.0;;;11.86;86.41
50652;BME280;66928;52.086;5.240;2023-03-21T07:47:24;101234.0;;;11.8;86.23
50652;BME280;66928;52.086;5.240;2023-03-21T07:49:00;101234.0;;;11.78;86.5
50652;BME280;66928;52.086;5.240;2023-03-21T07:52:12;101236.0;;;11.77;86.83
50652;BME280;66928;52.086;5.240;2023-03-21T07:53:48;101239.0;;;11.9;86.4
50652;BME280;66928;52.086;5.240;2023-03-21T07:55:24;101233.0;;;11.88;86.33
50652;BME280;66928;52.086;5.240;2023-03-21T07:58:37;101231.0;;;11.79;86.45
50652;BME280;66928;52.086;5.240;2023-03-21T08:00:14;101233.0;;;12.0;85.69
50652;BME280;66928;52.086;5.240;2023-03-21T08:01:50;101235.0;;;12.14;85.19
50652;BME280;66928;52.086;5.240;2023-03-21T08:05:02;101234.0;;;12.05;85.45
50652;BME280;66928;52.086;5.240;2023-03-21T08:06:40;101236.0;;;12.05;85.29
50652;BME280;66928;52.086;5.240;2023-03-21T08:08:16;101238.0;;;12.0;85.51
50652;BME280;66928;52.086;5.240;2023-03-21T08:09:53;101243.0;;;11.99;85.54
50652;BME280;66928;52.086;5.240;2023-03-21T08:13:05;101238.0;;;12.03;85.53
50652;BME280;66928;52.086;5.240;2023-03-21T08:14:41;101227.0;;;12.07;85.53
50652;BME280;66928;52.086;5.240;2023-03-21T08:16:17;101227.0;;;12.13;85.16
50652;BME280;66928;52.086;5.240;2023-03-21T08:19:29;101223.0;;;12.13;85.35
50652;BME280;66928;52.086;5.240;2023-03-21T08:21:06;101225.0;;;12.26;84.96
50652;BME280;66928;52.086;5.240;2023-03-21T08:22:42;101226.0;;;12.2;84.82
50652;BME280;66928;52.086;5.240;2023-03-21T08:25:55;101224.0;;;12.19;84.76
50652;BME280;66928;52.086;5.240;2023-03-21T08:27:33;101217.0;;;12.19;84.8
50652;BME280;66928;52.086;5.240;2023-03-21T08:29:09;101216.0;;;12.28;84.63
50652;BME280;66928;52.086;5.240;2023-03-21T08:30:46;101221.0;;;12.14;85.08
50652;BME280;66928;52.086;5.240;2023-03-21T08:33:58;101224.0;;;12.22;84.57
50652;BME280;66928;52.086;5.240;2023-03-21T08:35:34;101218.0;;;12.15;85.07
50652;BME280;66928;52.086;5.240;2023-03-21T08:37:10;101218.0;;;12.23;84.78
50652;BME280;66928;52.086;5.240;2023-03-21T08:40:22;101213.0;;;12.27;84.4
50652;BME280;66928;52.086;5.240;2023-03-21T08:41:58;101209.0;;;12.4;84.11
50652;BME280;66928;52.086;5.240;2023-03-21T08:43:34;101200.0;;;12.39;84.09
50652;BME280;66928;52.086;5.240;2023-03-21T08:46:49;101198.0;;;12.42;83.28
50652;BME280;66928;52.086;5.240;2023-03-21T08:48:25;101197.0;;;12.35;83.24
50652;BME280;66928;52.086;5.240;2023-03-21T08:50:02;101195.0;;;12.38;82.98
50652;BME280;66928;52.086;5.240;2023-03-21T08:51:38;101197.0;;;12.5;82.83
50652;BME280;66928;52.086;5.240;2023-03-21T08:54:51;101192.0;;;12.56;82.14
50652;BME280;66928;52.086;5.240;2023-03-21T08:56:27;101193.0;;;12.61;81.63
50652;BME280;66928;52.086;5.240;2023-03-21T08:58:03;101183.0;;;12.52;81.72
50652;BME280;66928;52.086;5.240;2023-03-21T09:01:16;101178.0;;;12.64;81.45
50652;BME280;66928;52.086;5.240;2023-03-21T09:02:52;101180.0;;;12.62;81.11
50652;BME280;66928;52.086;5.240;2023-03-21T09:04:29;101173.0;;;12.63;81.3
50652;BME280;66928;52.086;5.240;2023-03-21T09:07:41;101182.0;;;12.62;81.37
50652;BME280;66928;52.086;5.240;2023-03-21T09:09:18;101172.0;;;12.6;81.19
50652;BME280;66928;52.086;5.240;2023-03-21T09:10:55;101173.0;;;12.59;80.97
50652;BME280;66928;52.086;5.240;2023-03-21T09:12:31;101176.0;;;12.51;80.37
50652;BME280;66928;52.086;5.240;2023-03-21T09:15:44;101173.0;;;12.63;80.56
50652;BME280;66928;52.086;5.240;2023-03-21T09:17:21;101171.0;;;12.56;81.03
50652;BME280;66928;52.086;5.240;2023-03-21T09:18:57;101169.0;;;12.62;81.11
50652;BME280;66928;52.086;5.240;2023-03-21T09:22:10;101159.0;;;12.63;81.0
50652;BME280;66928;52.086;5.240;2023-03-21T09:23:46;101163.0;;;12.7;80.69
50652;BME280;66928;52.086;5.240;2023-03-21T09:25:23;101152.0;;;12.55;81.27
50652;BME280;66928;52.086;5.240;2023-03-21T09:28:36;101157.0;;;12.63;80.92
50652;BME280;66928;52.086;5.240;2023-03-21T09:30:13;101155.0;;;12.54;80.88
50652;BME280;66928;52.086;5.240;2023-03-21T09:31:51;101147.0;;;12.53;81.11
50652;BME280;66928;52.086;5.240;2023-03-21T09:33:27;101145.0;;;12.57;81.16
50652;BME280;66928;52.086;5.240;2023-03-21T09:36:41;101142.0;;;12.72;80.91
50652;BME280;66928;52.086;5.240;2023-03-21T09:38:18;101139.0;;;12.61;81.55
50652;BME280;66928;52.086;5.240;2023-03-21T09:39:54;101138.0;;;12.74;81.3
50652;BME280;66928;52.086;5.240;2023-03-21T09:43:30;101142.0;;;12.85;81.47
50652;BME280;66928;52.086;5.240;2023-03-21T09:45:20;101140.0;;;12.76;81.19
50652;BME280;66928;52.086;5.240;2023-03-21T09:47:02;101145.0;;;12.88;80.72
50652;BME280;66928;52.086;5.240;2023-03-21T09:48:50;101150.0;;;12.8;81.03
50652;BME280;66928;52.086;5.240;2023-03-21T09:50:34;101143.0;;;12.69;81.37
50652;BME280;66928;52.086;5.240;2023-03-21T09:53:58;101145.0;;;12.81;81.24
50652;BME280;66928;52.086;5.240;2023-03-21T09:55:39;101139.0;;;12.83;80.86
50652;BME280;66928;52.086;5.240;2023-03-21T09:57:24;101135.0;;;12.85;80.17
50652;BME280;66928;52.086;5.240;2023-03-21T09:59:06;101141.0;;;12.8;80.55
50652;BME280;66928;52.086;5.240;2023-03-21T10:00:48;101140.0;;;13.0;80.44
50652;BME280;66928;52.086;5.240;2023-03-21T10:04:13;101136.0;;;12.9;80.33
50652;BME280;66928;52.086;5.240;2023-03-21T10:05:52;101138.0;;;12.93;80.36
50652;BME280;66928;52.086;5.240;2023-03-21T10:07:30;101146.0;;;12.96;80.14
50652;BME280;66928;52.086;5.240;2023-03-21T10:09:17;101143.0;;;13.12;79.78
50652;BME280;66928;52.086;5.240;2023-03-21T10:12:37;101138.0;;;13.15;79.77
50652;BME280;66928;52.086;5.240;2023-03-21T10:14:18;101141.0;;;13.09;79.44
50652;BME280;66928;52.086;5.240;2023-03-21T10:15:56;101141.0;;;13.15;79.02
50652;BME280;66928;52.086;5.240;2023-03-21T10:17:36;101145.0;;;13.33;78.78
50652;BME280;66928;52.086;5.240;2023-03-21T10:20:53;101141.0;;;13.27;79.27
50652;BME280;66928;52.086;5.240;2023-03-21T10:22:30;101144.0;;;13.4;79.08
50652;BME280;66928;52.086;5.240;2023-03-21T10:24:10;101140.0;;;13.48;78.27
50652;BME280;66928;52.086;5.240;2023-03-21T10:25:49;101135.0;;;13.53;77.42
50652;BME280;66928;52.086;5.240;2023-03-21T10:29:09;101127.0;;;13.55;77.06
50652;BME280;66928;52.086;5.240;2023-03-21T10:30:50;101124.0;;;13.48;76.92
50652;BME280;66928;52.086;5.240;2023-03-21T10:32:27;101128.0;;;13.44;76.48
50652;BME280;66928;52.086;5.240;2023-03-21T10:34:08;101125.0;;;13.48;75.98
50652;BME280;66928;52.086;5.240;2023-03-21T10:37:33;101115.0;;;13.46;76.44
50652;BME280;66928;52.086;5.240;2023-03-21T10:39:18;101121.0;;;13.51;76.19
50652;BME280;66928;52.086;5.240;2023-03-21T10:40:57;101119.0;;;13.65;75.95
50652;BME280;66928;52.086;5.240;2023-03-21T10:42:34;101113.0;;;13.76;75.95
50652;BME280;66928;52.086;5.240;2023-03-21T10:45:49;101112.0;;;13.73;76.16
50652;BME280;66928;52.086;5.240;2023-03-21T10:47:30;101110.0;;;13.7;76.0
50652;BME280;66928;52.086;5.240;2023-03-21T10:49:07;101117.0;;;13.71;75.56
50652;BME280;66928;52.086;5.240;2023-03-21T10:52:26;101125.0;;;13.81;75.11
50652;BME280;66928;52.086;5.240;2023-03-21T10:54:05;101126.0;;;13.84;74.5
50652;BME280;66928;52.086;5.240;2023-03-21T10:55:46;101116.0;;;13.77;74.55
50652;BME280;66928;52.086;5.240;2023-03-21T10:57:26;101117.0;;;13.87;74.42
50652;BME280;66928;52.086;5.240;2023-03-21T11:00:42;101120.0;;;13.99;74.36
50652;BME280;66928;52.086;5.240;2023-03-21T11:02:23;101119.0;;;14.07;74.37
50652;BME280;66928;52.086;5.240;2023-03-21T11:04:06;101116.0;;;14.16;73.99
50652;BME280;66928;52.086;5.240;2023-03-21T11:05:44;101117.0;;;13.88;73.72
50652;BME280;66928;52.086;5.240;2023-03-21T11:09:01;101121.0;;;14.03;73.37
50652;BME280;66928;52.086;5.240;2023-03-21T11:10:51;101121.0;;;13.94;73.11
50652;BME280;66928;52.086;5.240;2023-03-21T11:12:33;101120.0;;;13.88;74.0
50652;BME280;66928;52.086;5.240;2023-03-21T11:14:26;101119.0;;;13.95;73.94
50652;BME280;66928;52.086;5.240;2023-03-21T11:16:09;101122.0;;;14.07;73.7
50652;BME280;66928;52.086;5.240;2023-03-21T11:19:29;101118.0;;;14.11;74.19
50652;BME280;66928;52.086;5.240;2023-03-21T11:21:07;101113.0;;;14.21;74.2
50652;BME280;66928;52.086;5.240;2023-03-21T11:22:47;101114.0;;;14.07;74.28
50652;BME280;66928;52.086;5.240;2023-03-21T11:24:27;101120.0;;;14.31;73.52
50652;BME280;66928;52.086;5.240;2023-03-21T11:27:47;101110.0;;;14.28;73.38
50652;BME280;66928;52.086;5.240;2023-03-21T11:29:29;101102.0;;;14.32;72.77
50652;BME280;66928;52.086;5.240;2023-03-21T11:31:08;101105.0;;;14.42;73.02
50652;BME280;66928;52.086;5.240;2023-03-21T11:32:44;101099.0;;;14.44;73.06
50652;BME280;66928;52.086;5.240;2023-03-21T11:36:05;101094.0;;;14.56;72.22
50652;BME280;66928;52.086;5.240;2023-03-21T11:37:45;101088.0;;;14.62;72.03
50652;BME280;66928;52.086;5.240;2023-03-21T11:39:30;101086.0;;;14.55;72.0
50652;BME280;66928;52.086;5.240;2023-03-21T11:41:07;101086.0;;;14.67;71.61
50652;BME280;66928;52.086;5.240;2023-03-21T11:44:26;101086.0;;;14.53;71.33
50652;BME280;66928;52.086;5.240;2023-03-21T11:46:06;101073.0;;;14.41;71.52
50652;BME280;66928;52.086;5.240;2023-03-21T11:47:44;101086.0;;;14.57;71.36
50652;BME280;66928;52.086;5.240;2023-03-21T11:51:03;101088.0;;;14.7;71.75
50652;BME280;66928;52.086;5.240;2023-03-21T11:52:48;101087.0;;;14.69;71.52
50652;BME280;66928;52.086;5.240;2023-03-21T11:54:37;101084.0;;;14.72;71.41
50652;BME280;66928;52.086;5.240;2023-03-21T11:56:25;101089.0;;;14.72;71.14
50652;BME280;66928;52.086;5.240;2023-03-21T11:58:14;101093.0;;;14.69;70.97
50652;BME280;66928;52.086;5.240;2023-03-21T12:00:02;101089.0;;;14.49;71.41
50652;BME280;66928;52.086;5.240;2023-03-21T12:03:47;101092.0;;;14.44;70.95
50652;BME280;66928;52.086;5.240;2023-03-21T12:05:35;101091.0;;;14.59;70.61
50652;BME280;66928;52.086;5.240;2023-03-21T12:07:24;101093.0;;;14.66;70.61
50652;BME280;66928;52.086;5.240;2023-03-21T12:09:25;101083.0;;;14.5;70.75
50652;BME280;66928;52.086;5.240;2023-03-21T12:11:14;101085.0;;;14.56;71.27
50652;BME280;66928;52.086;5.240;2023-03-21T12:13:00;101080.0;;;14.49;71.11
50652;BME280;66928;52.086;5.240;2023-03-21T12:14:46;101074.0;;;14.73;70.44
50652;BME280;66928;52.086;5.240;2023-03-21T12:18:30;101073.0;;;14.72;70.44
50652;BME280;66928;52.086;5.240;2023-03-21T12:20:46;101063.0;;;14.7;69.11
50652;BME280;66928;52.086;5.240;2023-03-21T12:22:33;101062.0;;;14.45;69.59
50652;BME280;66928;52.086;5.240;2023-03-21T12:24:17;101064.0;;;14.33;69.83
50652;BME280;66928;52.086;5.240;2023-03-21T12:26:02;101065.0;;;14.41;69.13
50652;BME280;66928;52.086;5.240;2023-03-21T12:27:59;101059.0;;;14.39;68.22
50652;BME280;66928;52.086;5.240;2023-03-21T12:29:51;101059.0;;;14.45;67.97
50652;BME280;66928;52.086;5.240;2023-03-21T12:31:41;101052.0;;;14.3;68.45
50652;BME280;66928;52.086;5.240;2023-03-21T12:33:57;101048.0;;;14.43;68.73
50652;BME280;66928;52.086;5.240;2023-03-21T12:35:50;101051.0;;;14.69;68.69
50652;BME280;66928;52.086;5.240;2023-03-21T12:37:33;101049.0;;;14.56;68.52
50652;BME280;66928;52.086;5.240;2023-03-21T12:41:11;101047.0;;;14.61;68.22
50652;BME280;66928;52.086;5.240;2023-03-21T12:43:11;101045.0;;;14.61;68.14
50652;BME280;66928;52.086;5.240;2023-03-21T12:45:02;101045.0;;;14.71;67.88
50652;BME280;66928;52.086;5.240;2023-03-21T12:46:47;101037.0;;;14.73;68.13
50652;BME280;66928;52.086;5.240;2023-03-21T12:48:32;101038.0;;;14.81;67.27
50652;BME280;66928;52.086;5.240;2023-03-21T12:50:15;101037.0;;;14.64;66.91
50652;BME280;66928;52.086;5.240;2023-03-21T12:59:22;101041.0;;;14.57;65.27
50652;BME280;66928;52.086;5.240;2023-03-21T13:01:01;101039.0;;;14.69;65.3
50652;BME280;66928;52.086;5.240;2023-03-21T13:02:43;101033.0;;;14.83;64.95
50652;BME280;66928;52.086;5.240;2023-03-21T13:06:38;101030.0;;;15.01;65.23
50652;BME280;66928;52.086;5.240;2023-03-21T13:08:20;101019.0;;;15.09;64.12
50652;BME280;66928;52.086;5.240;2023-03-21T13:10:01;101010.0;;;15.1;62.68
50652;BME280;66928;52.086;5.240;2023-03-21T13:11:47;101006.0;;;14.97;61.4
50652;BME280;66928;52.086;5.240;2023-03-21T13:15:22;101005.0;;;15.07;59.82
50652;BME280;66928;52.086;5.240;2023-03-21T13:17:19;101009.0;;;15.19;59.93
50652;BME280;66928;52.086;5.240;2023-03-21T13:20:50;101009.0;;;15.17;61.11
50652;BME280;66928;52.086;5.240;2023-03-21T13:22:30;101005.0;;;15.39;61.23
50652;BME280;66928;52.086;5.240;2023-03-21T13:24:18;101005.0;;;15.05;61.39
50652;BME280;66928;52.086;5.240;2023-03-21T13:25:59;101005.0;;;15.06;60.99
50652;BME280;66928;52.086;5.240;2023-03-21T13:29:21;100998.0;;;15.0;61.11
50652;BME280;66928;52.086;5.240;2023-03-21T13:31:17;101005.0;;;14.84;61.43
50652;BME280;66928;52.086;5.240;2023-03-21T13:33:03;100996.0;;;14.99;60.88
50652;BME280;66928;52.086;5.240;2023-03-21T13:34:40;100995.0;;;14.9;60.86
50652;BME280;66928;52.086;5.240;2023-03-21T13:36:23;100999.0;;;14.87;61.13
50652;BME280;66928;52.086;5.240;2023-03-21T13:39:42;101003.0;;;14.75;61.3
50652;BME280;66928;52.086;5.240;2023-03-21T13:41:27;100999.0;;;14.76;61.37
50652;BME280;66928;52.086;5.240;2023-03-21T13:43:32;100997.0;;;14.39;62.1
50652;BME280;66928;52.086;5.240;2023-03-21T13:45:23;100992.0;;;14.5;62.45
50652;BME280;66928;52.086;5.240;2023-03-21T13:47:02;100987.0;;;14.62;62.75
50652;BME280;66928;52.086;5.240;2023-03-21T13:48:42;100985.0;;;14.7;62.49
50652;BME280;66928;52.086;5.240;2023-03-21T13:52:26;100984.0;;;14.88;62.66
50652;BME280;66928;52.086;5.240;2023-03-21T13:54:16;100987.0;;;14.92;62.34
50652;BME280;66928;52.086;5.240;2023-03-21T13:56:00;100986.0;;;14.98;62.54
50652;BME280;66928;52.086;5.240;2023-03-21T13:57:46;100984.0;;;15.1;62.37
50652;BME280;66928;52.086;5.240;2023-03-21T13:59:40;100982.0;;;14.99;62.51
50652;BME280;66928;52.086;5.240;2023-03-21T14:01:28;100977.0;;;15.09;62.92
50652;BME280;66928;52.086;5.240;2023-03-21T14:04:55;100973.0;;;15.15;62.57
50652;BME280;66928;52.086;5.240;2023-03-21T14:06:38;100968.0;;;15.09;61.92
50652;BME280;66928;52.086;5.240;2023-03-21T14:08:17;100964.0;;;15.09;62.22
50652;BME280;66928;52.086;5.240;2023-03-21T14:09:58;100960.0;;;15.14;62.22
50652;BME280;66928;52.086;5.240;2023-03-21T14:13:15;100961.0;;;15.16;62.57
50652;BME280;66928;52.086;5.240;2023-03-21T14:14:58;100965.0;;;15.11;62.55
50652;BME280;66928;52.086;5.240;2023-03-21T14:16:36;100958.0;;;15.03;62.57
50652;BME280;66928;52.086;5.240;2023-03-21T14:18:14;100961.0;;;15.18;62.52
50652;BME280;66928;52.086;5.240;2023-03-21T14:21:32;100962.0;;;15.23;62.53
50652;BME280;66928;52.086;5.240;2023-03-21T14:23:13;100961.0;;;15.2;62.05
50652;BME280;66928;52.086;5.240;2023-03-21T14:24:54;100955.0;;;15.15;62.17
50652;BME280;66928;52.086;5.240;2023-03-21T14:26:33;100953.0;;;15.1;62.05
50652;BME280;66928;52.086;5.240;2023-03-21T14:29:51;100947.0;;;14.86;62.36
50652;BME280;66928;52.086;5.240;2023-03-21T14:31:27;100955.0;;;14.76;62.81
50652;BME280;66928;52.086;5.240;2023-03-21T14:33:10;100951.0;;;14.55;63.68
50652;BME280;66928;52.086;5.240;2023-03-21T14:34:52;100948.0;;;14.82;63.4
50652;BME280;66928;52.086;5.240;2023-03-21T14:38:20;100942.0;;;14.86;63.21
50652;BME280;66928;52.086;5.240;2023-03-21T14:39:58;100947.0;;;15.04;63.39
50652;BME280;66928;52.086;5.240;2023-03-21T14:41:43;100946.0;;;15.12;63.17
50652;BME280;66928;52.086;5.240;2023-03-21T14:43:22;100950.0;;;15.17;63.43
50652;BME280;66928;52.086;5.240;2023-03-21T14:46:35;100941.0;;;15.01;63.64
50652;BME280;66928;52.086;5.240;2023-03-21T14:48:13;100950.0;;;14.81;63.36
50652;BME280;66928;52.086;5.240;2023-03-21T14:49:50;100949.0;;;15.08;63.12
50652;BME280;66928;52.086;5.240;2023-03-21T14:51:27;100946.0;;;14.93;63.52
50652;BME280;66928;52.086;5.240;2023-03-21T14:54:44;100953.0;;;14.93;63.6
50652;BME280;66928;52.086;5.240;2023-03-21T14:56:23;100955.0;;;14.78;64.19
50652;BME280;66928;52.086;5.240;2023-03-21T14:58:00;100949.0;;;14.66;64.85
50652;BME280;66928;52.086;5.240;2023-03-21T15:01:23;100949.0;;;14.63;65.08
50652;BME280;66928;52.086;5.240;2023-03-21T15:03:02;100946.0;;;14.83;64.77
50652;BME280;66928;52.086;5.240;2023-03-21T15:04:39;100949.0;;;14.83;64.72
50652;BME280;66928;52.086;5.240;2023-03-21T15:06:17;100953.0;;;14.83;65.09
50652;BME280;66928;52.086;5.240;2023-03-21T15:09:34;100946.0;;;14.76;65.13
50652;BME280;66928;52.086;5.240;2023-03-21T15:11:11;100938.0;;;14.6;65.72
50652;BME280;66928;52.086;5.240;2023-03-21T15:12:49;100946.0;;;14.5;66.24
50652;BME280;66928;52.086;5.240;2023-03-21T15:14:32;100934.0;;;14.36;66.87
50652;BME280;66928;52.086;5.240;2023-03-21T15:17:47;100928.0;;;14.35;67.47
50652;BME280;66928;52.086;5.240;2023-03-21T15:19:28;100924.0;;;14.24;67.83
50652;BME280;66928;52.086;5.240;2023-03-21T15:21:09;100918.0;;;14.56;67.33
50652;BME280;66928;52.086;5.240;2023-03-21T15:22:50;100917.0;;;14.6;67.19
50652;BME280;66928;52.086;5.240;2023-03-21T15:26:12;100914.0;;;14.41;67.55
50652;BME280;66928;52.086;5.240;2023-03-21T15:27:49;100917.0;;;14.44;68.22
50652;BME280;66928;52.086;5.240;2023-03-21T15:29:25;100918.0;;;14.38;68.39
50652;BME280;66928;52.086;5.240;2023-03-21T15:32:39;100919.0;;;14.55;68.11
50652;BME280;66928;52.086;5.240;2023-03-21T15:34:20;100913.0;;;14.26;68.63
50652;BME280;66928;52.086;5.240;2023-03-21T15:35:58;100915.0;;;14.37;68.69
50652;BME280;66928;52.086;5.240;2023-03-21T15:37:36;100918.0;;;14.49;68.5
50652;BME280;66928;52.086;5.240;2023-03-21T15:41:12;100919.0;;;14.39;68.66
50652;BME280;66928;52.086;5.240;2023-03-21T15:42:48;100922.0;;;14.33;68.77
50652;BME280;66928;52.086;5.240;2023-03-21T15:44:25;100925.0;;;14.31;68.83
50652;BME280;66928;52.086;5.240;2023-03-21T15:46:12;100926.0;;;14.48;68.27
50652;BME280;66928;52.086;5.240;2023-03-21T15:49:31;100932.0;;;14.46;68.38
50652;BME280;66928;52.086;5.240;2023-03-21T15:51:14;100933.0;;;14.5;68.49
50652;BME280;66928;52.086;5.240;2023-03-21T15:52:55;100933.0;;;14.5;68.74
50652;BME280;66928;52.086;5.240;2023-03-21T15:54:41;100936.0;;;14.2;69.69
50652;BME280;66928;52.086;5.240;2023-03-21T15:56:20;100942.0;;;14.32;69.3
50652;BME280;66928;52.086;5.240;2023-03-21T15:59:40;100941.0;;;14.17;70.05
50652;BME280;66928;52.086;5.240;2023-03-21T16:01:18;100955.0;;;14.1;70.2
50652;BME280;66928;52.086;5.240;2023-03-21T16:02:58;100957.0;;;14.16;70.19
50652;BME280;66928;52.086;5.240;2023-03-21T16:04:54;100952.0;;;14.11;70.58
50652;BME280;66928;52.086;5.240;2023-03-21T16:08:19;100958.0;;;14.13;70.67
50652;BME280;66928;52.086;5.240;2023-03-21T16:09:58;100961.0;;;14.1;70.72
50652;BME280;66928;52.086;5.240;2023-03-21T16:11:39;100958.0;;;14.04;71.31
50652;BME280;66928;52.086;5.240;2023-03-21T16:13:17;100959.0;;;14.12;70.97
50652;BME280;66928;52.086;5.240;2023-03-21T16:16:29;100969.0;;;14.09;72.3
50652;BME280;66928;52.086;5.240;2023-03-21T16:18:06;100975.0;;;13.91;74.88
50652;BME280;66928;52.086;5.240;2023-03-21T16:19:43;100973.0;;;13.81;76.24
50652;BME280;66928;52.086;5.240;2023-03-21T16:21:21;100971.0;;;13.7;77.33
50652;BME280;66928;52.086;5.240;2023-03-21T16:24:35;100976.0;;;13.66;77.97
50652;BME280;66928;52.086;5.240;2023-03-21T16:26:13;100972.0;;;13.68;77.48
50652;BME280;66928;52.086;5.240;2023-03-21T16:27:51;100965.0;;;13.59;78.49
50652;BME280;66928;52.086;5.240;2023-03-21T16:31:03;100965.0;;;13.55;79.42
50652;BME280;66928;52.086;5.240;2023-03-21T16:32:39;100959.0;;;13.76;78.92
50652;BME280;66928;52.086;5.240;2023-03-21T16:34:15;100948.0;;;13.71;79.13
50652;BME280;66928;52.086;5.240;2023-03-21T16:37:27;100951.0;;;13.81;79.25
50652;BME280;66928;52.086;5.240;2023-03-21T16:39:14;100946.0;;;13.89;78.88
50652;BME280;66928;52.086;5.240;2023-03-21T16:40:50;100945.0;;;13.98;78.69
50652;BME280;66928;52.086;5.240;2023-03-21T16:42:27;100939.0;;;13.96;78.74
50652;BME280;66928;52.086;5.240;2023-03-21T16:45:39;100947.0;;;14.05;77.97
50652;BME280;66928;52.086;5.240;2023-03-21T16:47:17;100949.0;;;13.97;77.69
50652;BME280;66928;52.086;5.240;2023-03-21T16:48:56;100939.0;;;13.96;77.73
50652;BME280;66928;52.086;5.240;2023-03-21T16:52:12;100936.0;;;13.88;77.77
50652;BME280;66928;52.086;5.240;2023-03-21T16:53:50;100935.0;;;13.94;78.11
50652;BME280;66928;52.086;5.240;2023-03-21T16:55:28;100930.0;;;13.86;78.24
50652;BME280;66928;52.086;5.240;2023-03-21T16:57:06;100922.0;;;13.78;78.33
50652;BME280;66928;52.086;5.240;2023-03-21T17:00:22;100921.0;;;13.85;77.84
50652;BME280;66928;52.086;5.240;2023-03-21T17:01:59;100924.0;;;13.79;78.19
50652;BME280;66928;52.086;5.240;2023-03-21T17:03:36;100927.0;;;13.65;78.63
50652;BME280;66928;52.086;5.240;2023-03-21T17:06:51;100924.0;;;13.54;79.16
50652;BME280;66928;52.086;5.240;2023-03-21T17:08:29;100942.0;;;13.65;78.72
50652;BME280;66928;52.086;5.240;2023-03-21T17:10:12;100939.0;;;13.72;78.77
50652;BME280;66928;52.086;5.240;2023-03-21T17:11:57;100940.0;;;13.79;78.44
50652;BME280;66928;52.086;5.240;2023-03-21T17:15:10;100937.0;;;13.61;79.02
50652;BME280;66928;52.086;5.240;2023-03-21T17:16:47;100937.0;;;13.43;79.48
50652;BME280;66928;52.086;5.240;2023-03-21T17:18:23;100935.0;;;13.59;78.83
50652;BME280;66928;52.086;5.240;2023-03-21T17:20:01;100933.0;;;13.64;78.56
50652;BME280;66928;52.086;5.240;2023-03-21T17:23:22;100930.0;;;13.73;78.22
50652;BME280;66928;52.086;5.240;2023-03-21T17:24:58;100930.0;;;13.65;78.47
50652;BME280;66928;52.086;5.240;2023-03-21T17:26:34;100928.0;;;13.48;79.02
50652;BME280;66928;52.086;5.240;2023-03-21T17:29:47;100937.0;;;13.53;78.92
50652;BME280;66928;52.086;5.240;2023-03-21T17:31:25;100940.0;;;13.55;78.97
50652;BME280;66928;52.086;5.240;2023-03-21T17:33:07;100939.0;;;13.66;78.75
50652;BME280;66928;52.086;5.240;2023-03-21T17:34:42;100939.0;;;13.45;78.95
50652;BME280;66928;52.086;5.240;2023-03-21T17:38:03;100943.0;;;13.44;79.34
50652;BME280;66928;52.086;5.240;2023-03-21T17:39:41;100945.0;;;13.51;79.2
50652;BME280;66928;52.086;5.240;2023-03-21T17:41:18;100943.0;;;13.62;78.83
50652;BME280;66928;52.086;5.240;2023-03-21T17:42:57;100940.0;;;13.5;79.33
50652;BME280;66928;52.086;5.240;2023-03-21T17:46:12;100943.0;;;13.55;79.05
50652;BME280;66928;52.086;5.240;2023-03-21T17:47:50;100940.0;;;13.59;78.78